createdAt,value
2018-10-18T00:01:17.791Z,90.09
2018-10-18T00:03:46.446Z,89.95
2018-10-18T00:06:15.335Z,89.64
2018-10-18T00:08:43.971Z,90.04
2018-10-18T00:11:13.472Z,90.06
2018-10-18T00:13:42.200Z,90.37
2018-10-18T00:16:11.546Z,90.78
2018-10-18T00:18:40.619Z,91.26
2018-10-18T00:21:09.984Z,91.10
2018-10-18T00:23:39.234Z,91.25
2018-10-18T00:26:08.629Z,91.70
2018-10-18T00:28:37.206Z,91.91
2018-10-18T00:31:06.120Z,91.73
2018-10-18T00:33:35.120Z,91.55
2018-10-18T00:36:04.578Z,91.75
2018-10-18T00:38:34.046Z,91.70
2018-10-18T00:41:02.797Z,91.18
2018-10-18T00:43:31.836Z,91.15
2018-10-18T00:46:00.728Z,91.57
2018-10-18T00:48:29.410Z,91.37
2018-10-18T00:50:58.461Z,91.45
2018-10-18T00:53:27.186Z,90.87
2018-10-18T00:55:56.156Z,91.53
2018-10-18T00:58:25.955Z,91.27
2018-10-18T01:00:54.632Z,91.10
2018-10-18T01:03:23.750Z,91.64
2018-10-18T01:05:52.949Z,91.40
2018-10-18T01:08:23.358Z,91.81
2018-10-18T01:10:53.131Z,91.45
2018-10-18T01:13:21.800Z,91.64
2018-10-18T01:15:50.493Z,91.71
2018-10-18T01:18:19.739Z,92.35
2018-10-18T01:20:48.373Z,92.62
2018-10-18T01:23:17.676Z,93.06
2018-10-18T01:25:46.653Z,93.14
2018-10-18T01:28:15.809Z,92.81
2018-10-18T01:30:44.616Z,93.19
2018-10-18T01:33:13.392Z,92.67
2018-10-18T01:35:42.992Z,92.52
2018-10-18T01:38:11.910Z,92.39
2018-10-18T01:40:40.521Z,92.49
2018-10-18T01:43:09.757Z,92.47
2018-10-18T01:45:38.486Z,92.37
2018-10-18T01:48:08.381Z,92.67
2018-10-18T01:50:37.027Z,92.60
2018-10-18T01:53:06.252Z,93.14
2018-10-18T01:55:36.672Z,93.81
2018-10-18T01:58:06.031Z,93.77
2018-10-18T02:00:34.888Z,93.17
2018-10-18T02:03:04.412Z,93.55
2018-10-18T02:05:33.851Z,93.53
2018-10-18T02:08:02.742Z,93.17
2018-10-18T02:10:31.807Z,93.10
2018-10-18T02:13:00.884Z,93.80
2018-10-18T02:15:29.603Z,93.48
2018-10-18T02:17:58.461Z,93.80
2018-10-18T02:20:27.737Z,93.86
2018-10-18T02:22:56.794Z,93.36
2018-10-18T02:25:25.893Z,93.68
2018-10-18T02:27:54.539Z,93.47
2018-10-18T02:30:23.627Z,93.17
2018-10-18T02:32:52.819Z,93.23
2018-10-18T02:35:22.083Z,93.55
2018-10-18T02:37:51.247Z,93.73
2018-10-18T02:40:20.153Z,93.77
2018-10-18T02:42:48.812Z,93.69
2018-10-18T02:45:18.071Z,93.61
2018-10-18T02:47:47.366Z,93.39
2018-10-18T02:50:16.336Z,93.60
2018-10-18T02:52:45.773Z,93.14
2018-10-18T02:55:14.529Z,93.15
2018-10-18T02:57:44.043Z,93.67
2018-10-18T03:00:13.476Z,93.76
2018-10-18T03:02:42.850Z,93.80
2018-10-18T03:05:11.781Z,93.83
2018-10-18T03:07:41.122Z,93.79
2018-10-18T03:10:10.197Z,94.18
2018-10-18T03:12:38.772Z,94.08
2018-10-18T03:15:08.693Z,94.23
2018-10-18T03:17:37.887Z,94.88
2018-10-18T03:20:06.732Z,95.26
2018-10-18T03:22:35.369Z,95.06
2018-10-18T03:25:04.674Z,94.66
2018-10-18T03:27:33.730Z,95.04
2018-10-18T03:30:03.533Z,95.28
2018-10-18T03:32:32.267Z,94.71
2018-10-18T03:35:01.044Z,95.18
2018-10-18T03:37:30.674Z,95.13
2018-10-18T03:39:59.994Z,94.77
2018-10-18T03:42:29.153Z,94.68
2018-10-18T03:44:58.406Z,94.78
2018-10-18T03:47:27.057Z,94.78
2018-10-18T03:49:55.956Z,94.72
2018-10-18T03:52:25.053Z,94.51
2018-10-18T03:54:54.343Z,94.81
2018-10-18T03:57:23.623Z,94.63
2018-10-18T03:59:52.980Z,94.85
2018-10-18T04:02:21.927Z,95.23
2018-10-18T04:04:51.100Z,94.96
2018-10-18T04:07:20.259Z,94.68
2018-10-18T04:09:49.062Z,95.04
2018-10-18T04:12:18.279Z,95.27
2018-10-18T04:14:47.084Z,95.65
2018-10-18T04:17:16.200Z,95.61
2018-10-18T04:19:45.528Z,95.63
2018-10-18T04:22:14.293Z,95.38
2018-10-18T04:24:42.979Z,95.74
2018-10-18T04:27:11.648Z,95.70
2018-10-18T04:29:41.389Z,95.14
2018-10-18T04:32:10.304Z,95.31
2018-10-18T04:34:39.047Z,95.22
2018-10-18T04:37:07.766Z,94.66
2018-10-18T04:39:36.707Z,95.04
2018-10-18T04:42:05.846Z,94.90
2018-10-18T04:44:34.755Z,95.13
2018-10-18T04:47:04.183Z,95.25
2018-10-18T04:49:33.183Z,95.65
2018-10-18T04:52:02.812Z,95.72
2018-10-18T04:54:31.711Z,95.57
2018-10-18T04:57:00.937Z,95.27
2018-10-18T04:59:29.660Z,95.09
2018-10-18T05:01:58.308Z,95.32
2018-10-18T05:04:27.068Z,95.21
2018-10-18T05:06:55.932Z,95.37
2018-10-18T05:09:26.297Z,95.12
2018-10-18T05:11:55.275Z,95.43
2018-10-18T05:14:24.597Z,95.49
2018-10-18T05:16:54.617Z,95.89
2018-10-18T05:19:24.150Z,95.79
2018-10-18T05:21:53.084Z,95.51
2018-10-18T05:24:22.074Z,95.85
2018-10-18T05:26:50.704Z,95.75
2018-10-18T05:29:19.602Z,96.27
2018-10-18T05:31:48.327Z,96.26
2018-10-18T05:34:17.237Z,95.93
2018-10-18T05:36:46.499Z,96.34
2018-10-18T05:39:15.283Z,96.46
2018-10-18T05:41:45.553Z,96.42
2018-10-18T05:44:14.219Z,96.33
2018-10-18T05:46:43.435Z,96.31
2018-10-18T05:49:12.625Z,95.89
2018-10-18T05:51:41.888Z,96.07
2018-10-18T05:54:10.782Z,96.40
2018-10-18T05:56:40.457Z,96.66
2018-10-18T05:59:09.650Z,96.53
2018-10-18T06:01:39.134Z,96.93
2018-10-18T06:04:08.114Z,96.79
2018-10-18T06:06:37.197Z,97.09
2018-10-18T06:09:09.913Z,96.82
2018-10-18T06:11:38.648Z,96.82
2018-10-18T06:14:07.344Z,96.76
2018-10-18T06:16:36.969Z,96.40
2018-10-18T06:19:06.512Z,96.00
2018-10-18T06:21:35.363Z,95.89
2018-10-18T06:24:04.717Z,95.23
2018-10-18T06:26:34.148Z,94.59
2018-10-18T06:29:03.688Z,94.91
2018-10-18T06:31:33.518Z,95.22
2018-10-18T06:34:02.550Z,94.75
2018-10-18T06:36:31.705Z,94.39
2018-10-18T06:39:00.710Z,94.08
2018-10-18T06:41:29.516Z,93.78
2018-10-18T06:43:58.405Z,93.06
2018-10-18T06:46:27.590Z,92.95
2018-10-18T06:48:57.083Z,92.29
2018-10-18T06:51:25.714Z,91.61
2018-10-18T06:53:54.548Z,91.22
2018-10-18T06:56:23.529Z,90.51
2018-10-18T06:58:52.976Z,89.70
2018-10-18T07:01:21.628Z,89.04
2018-10-18T07:03:51.662Z,88.46
2018-10-18T07:06:20.459Z,88.04
2018-10-18T07:08:49.345Z,88.03
2018-10-18T07:11:18.068Z,87.68
2018-10-18T07:13:47.108Z,86.67
2018-10-18T07:16:16.349Z,86.09
2018-10-18T07:18:45.154Z,85.31
2018-10-18T07:21:13.958Z,83.83
2018-10-18T07:23:43.093Z,83.77
2018-10-18T07:26:12.111Z,84.32
2018-10-18T07:28:41.043Z,84.23
2018-10-18T07:31:09.852Z,83.86
2018-10-18T07:33:38.880Z,83.35
2018-10-18T07:36:07.871Z,82.41
2018-10-18T07:38:36.910Z,81.89
2018-10-18T07:41:05.952Z,81.12
2018-10-18T07:43:35.795Z,80.40
2018-10-18T07:46:05.234Z,80.05
2018-10-18T07:48:34.243Z,79.84
2018-10-18T07:51:03.908Z,79.19
2018-10-18T07:53:32.820Z,78.32
2018-10-18T07:56:02.020Z,77.04
2018-10-18T07:58:31.339Z,75.62
2018-10-18T08:01:00.668Z,74.55
2018-10-18T08:03:30.003Z,73.48
2018-10-18T08:05:58.749Z,70.84
2018-10-18T08:08:28.099Z,69.66
2018-10-18T08:10:57.326Z,65.44
2018-10-18T08:13:26.777Z,63.04
2018-10-18T08:15:55.902Z,60.11
2018-10-18T08:18:25.288Z,55.94
2018-10-18T08:20:54.222Z,54.61
2018-10-18T08:23:23.088Z,53.17
2018-10-18T08:25:51.741Z,52.70
2018-10-18T08:28:20.655Z,51.91
2018-10-18T08:30:53.266Z,50.53
2018-10-18T08:33:23.193Z,49.25
2018-10-18T08:35:52.214Z,47.94
2018-10-18T08:38:21.991Z,46.69
2018-10-18T08:40:51.255Z,46.11
2018-10-18T08:43:21.128Z,45.98
2018-10-18T08:45:50.784Z,45.77
2018-10-18T08:48:20.438Z,45.41
2018-10-18T08:50:49.944Z,43.32
2018-10-18T08:53:18.570Z,43.87
2018-10-18T08:55:48.185Z,43.06
2018-10-18T08:58:16.994Z,43.32
2018-10-18T09:00:46.610Z,42.75
2018-10-18T09:03:15.708Z,43.36
2018-10-18T09:05:44.469Z,43.28
2018-10-18T09:08:14.179Z,44.01
2018-10-18T09:10:43.029Z,43.48
2018-10-18T09:13:11.848Z,42.56
2018-10-18T09:15:40.589Z,42.51
2018-10-18T09:18:09.277Z,41.38
2018-10-18T09:20:38.405Z,40.76
2018-10-18T09:23:07.294Z,40.52
2018-10-18T09:25:36.883Z,40.16
2018-10-18T09:28:06.248Z,38.47
2018-10-18T09:30:35.381Z,36.44
2018-10-18T09:33:04.264Z,36.30
2018-10-18T09:35:33.000Z,36.10
2018-10-18T09:38:01.891Z,34.92
2018-10-18T09:40:30.763Z,35.86
2018-10-18T09:42:59.579Z,36.75
2018-10-18T09:45:28.963Z,35.23
2018-10-18T09:47:57.935Z,36.69
2018-10-18T09:50:27.159Z,37.60
2018-10-18T09:52:56.372Z,36.54
2018-10-18T09:55:25.091Z,36.20
2018-10-18T09:57:53.850Z,35.68
2018-10-18T10:00:28.371Z,35.66
2018-10-18T10:03:03.011Z,34.62
2018-10-18T10:05:32.229Z,34.20
2018-10-18T10:08:01.449Z,33.74
2018-10-18T10:10:30.760Z,31.93
2018-10-18T10:12:59.559Z,30.76
2018-10-18T10:15:28.376Z,31.89
2018-10-18T10:17:58.285Z,30.40
2018-10-18T10:20:27.740Z,31.08
2018-10-18T10:22:56.775Z,33.13
2018-10-18T10:25:26.187Z,32.52
2018-10-18T10:27:55.304Z,31.52
2018-10-18T10:30:24.543Z,31.01
2018-10-18T10:32:54.110Z,29.54
2018-10-18T10:35:22.923Z,28.61
2018-10-18T10:37:52.024Z,28.02
2018-10-18T10:40:21.492Z,27.10
2018-10-18T10:42:50.663Z,27.43
2018-10-18T10:45:20.019Z,27.62
2018-10-18T10:47:48.996Z,26.38
2018-10-18T10:50:17.791Z,24.86
2018-10-18T10:52:47.435Z,23.84
2018-10-18T10:55:16.861Z,22.30
2018-10-18T10:57:45.749Z,23.59
2018-10-18T11:00:28.701Z,25.01
2018-10-18T11:02:57.770Z,25.63
2018-10-18T11:05:27.210Z,25.57
2018-10-18T11:07:56.518Z,25.48
2018-10-18T11:10:25.571Z,25.33
2018-10-18T11:12:55.879Z,25.10
2018-10-18T11:15:25.065Z,23.88
2018-10-18T11:17:54.854Z,23.75
2018-10-18T11:20:23.557Z,22.34
2018-10-18T11:22:53.142Z,21.59
2018-10-18T11:25:20.935Z,21.72
2018-10-18T11:27:51.184Z,21.04
2018-10-18T11:30:20.236Z,20.74
2018-10-18T11:32:48.816Z,20.35
2018-10-18T11:35:17.537Z,20.76
2018-10-18T11:37:47.111Z,19.64
2018-10-18T11:40:16.587Z,19.83
2018-10-18T11:42:45.642Z,20.26
2018-10-18T11:45:14.547Z,20.89
2018-10-18T11:47:43.439Z,20.04
2018-10-18T11:50:12.302Z,20.78
2018-10-18T11:52:41.295Z,21.14
2018-10-18T11:55:10.479Z,20.52
2018-10-18T11:57:39.260Z,20.60
2018-10-18T12:00:10.947Z,21.97
2018-10-18T12:02:40.516Z,22.59
2018-10-18T12:05:09.457Z,23.39
2018-10-18T12:07:38.435Z,24.93
2018-10-18T12:10:08.273Z,26.09
2018-10-18T12:12:38.070Z,26.59
2018-10-18T12:15:09.034Z,24.94
2018-10-18T12:17:37.780Z,24.13
2018-10-18T12:20:08.497Z,23.75
2018-10-18T12:22:37.159Z,22.22
2018-10-18T12:25:06.269Z,22.77
2018-10-18T12:27:35.281Z,23.12
2018-10-18T12:30:05.051Z,22.66
2018-10-18T12:32:34.749Z,22.22
2018-10-18T12:35:04.177Z,21.68
2018-10-18T12:37:33.149Z,21.39
2018-10-18T12:40:02.652Z,20.93
2018-10-18T12:42:31.925Z,21.33
2018-10-18T12:45:00.899Z,19.71
2018-10-18T12:47:30.169Z,20.11
2018-10-18T12:49:58.911Z,19.50
2018-10-18T12:52:27.752Z,18.67
2018-10-18T12:54:56.824Z,20.24
2018-10-18T12:57:26.019Z,20.05
2018-10-18T12:59:55.005Z,19.47
2018-10-18T13:02:23.833Z,19.26
2018-10-18T13:04:53.084Z,19.57
2018-10-18T13:07:21.995Z,21.16
2018-10-18T13:09:50.906Z,23.06
2018-10-18T13:12:19.646Z,23.53
2018-10-18T13:14:48.632Z,24.05
2018-10-18T13:17:17.935Z,25.26
2018-10-18T13:19:48.365Z,25.91
2018-10-18T13:22:17.234Z,27.76
2018-10-18T13:24:48.126Z,28.55
2018-10-18T13:27:16.828Z,29.67
2018-10-18T13:29:45.602Z,29.19
2018-10-18T13:32:14.407Z,28.09
2018-10-18T13:34:43.156Z,28.16
2018-10-18T13:37:12.033Z,27.45
2018-10-18T13:39:40.860Z,27.88
2018-10-18T13:42:10.480Z,27.94
2018-10-18T13:44:39.383Z,29.56
2018-10-18T13:47:08.198Z,28.80
2018-10-18T13:49:37.056Z,28.29
2018-10-18T13:52:05.931Z,27.62
2018-10-18T13:54:35.453Z,26.27
2018-10-18T13:57:05.481Z,26.62
2018-10-18T13:59:45.266Z,26.18
2018-10-18T14:02:14.075Z,24.49
2018-10-18T14:04:42.547Z,25.33
2018-10-18T14:07:11.637Z,25.22
2018-10-18T14:09:40.508Z,24.71
2018-10-18T14:12:09.250Z,25.92
2018-10-18T14:14:38.717Z,27.02
2018-10-18T14:17:08.061Z,28.75
2018-10-18T14:19:37.062Z,29.35
2018-10-18T14:22:07.423Z,30.02
2018-10-18T14:24:36.606Z,31.05
2018-10-18T14:27:05.875Z,31.62
2018-10-18T14:29:34.722Z,33.89
2018-10-18T14:32:03.450Z,34.75
2018-10-18T14:34:32.233Z,35.47
2018-10-18T14:37:01.779Z,36.60
2018-10-18T14:39:30.959Z,36.57
2018-10-18T14:42:00.295Z,37.53
2018-10-18T14:44:29.178Z,38.52
2018-10-18T14:46:58.919Z,38.60
2018-10-18T14:49:27.962Z,38.87
2018-10-18T14:51:57.632Z,39.22
2018-10-18T14:54:26.443Z,39.44
2018-10-18T14:56:55.567Z,39.45
2018-10-18T14:59:24.425Z,39.75
2018-10-18T15:01:53.970Z,40.89
2018-10-18T15:04:23.550Z,40.80
2018-10-18T15:06:52.305Z,41.89
2018-10-18T15:09:21.912Z,41.71
2018-10-18T15:11:50.941Z,41.65
2018-10-18T15:14:20.222Z,41.90
2018-10-18T15:16:49.280Z,42.62
2018-10-18T15:19:18.168Z,43.14
2018-10-18T15:21:47.012Z,42.95
2018-10-18T15:24:15.997Z,43.38
2018-10-18T15:26:46.016Z,44.00
2018-10-18T15:29:15.503Z,44.59
2018-10-18T15:31:44.588Z,44.94
2018-10-18T15:34:13.310Z,45.41
2018-10-18T15:36:42.333Z,45.91
2018-10-18T15:39:12.268Z,46.17
2018-10-18T15:41:41.669Z,46.11
2018-10-18T15:44:12.159Z,47.08
2018-10-18T15:46:40.936Z,47.42
2018-10-18T15:49:10.388Z,47.65
2018-10-18T15:51:39.479Z,48.57
2018-10-18T15:54:08.642Z,49.14
2018-10-18T15:56:37.653Z,48.95
2018-10-18T15:59:07.156Z,50.10
2018-10-18T16:01:36.376Z,50.25
2018-10-18T16:04:05.618Z,50.43
2018-10-18T16:06:35.768Z,50.72
2018-10-18T16:09:08.058Z,51.18
2018-10-18T16:11:37.044Z,51.43
2018-10-18T16:14:06.380Z,52.16
2018-10-18T16:16:35.258Z,52.38
2018-10-18T16:19:04.374Z,52.67
2018-10-18T16:21:33.978Z,52.73
2018-10-18T16:24:02.777Z,52.98
2018-10-18T16:26:31.810Z,53.41
2018-10-18T16:29:01.719Z,53.99
2018-10-18T16:31:30.532Z,53.94
2018-10-18T16:33:59.511Z,54.90
2018-10-18T16:36:28.467Z,54.88
2018-10-18T16:38:57.697Z,56.10
2018-10-18T16:41:27.500Z,55.79
2018-10-18T16:43:56.350Z,56.43
2018-10-18T16:46:25.332Z,56.72
2018-10-18T16:48:55.442Z,56.79
2018-10-18T16:51:24.457Z,57.26
2018-10-18T16:53:53.521Z,57.76
2018-10-18T16:56:22.456Z,58.50
2018-10-18T16:58:51.763Z,58.44
2018-10-18T17:01:20.601Z,58.93
2018-10-18T17:03:49.453Z,59.60
2018-10-18T17:06:18.906Z,59.39
2018-10-18T17:08:48.707Z,59.69
2018-10-18T17:11:17.810Z,59.66
2018-10-18T17:13:46.731Z,60.12
2018-10-18T17:16:15.753Z,60.65
2018-10-18T17:18:44.644Z,60.62
2018-10-18T17:21:13.531Z,61.00
2018-10-18T17:23:42.583Z,61.46
2018-10-18T17:26:12.972Z,61.71
2018-10-18T17:28:42.008Z,62.25
2018-10-18T17:31:11.339Z,62.60
2018-10-18T17:33:41.731Z,62.22
2018-10-18T17:36:10.752Z,63.06
2018-10-18T17:38:40.765Z,63.37
2018-10-18T17:41:10.174Z,63.34
2018-10-18T17:43:39.346Z,63.82
2018-10-18T17:46:09.764Z,63.57
2018-10-18T17:48:38.833Z,63.68
2018-10-18T17:51:08.572Z,63.65
2018-10-18T17:53:37.486Z,63.42
2018-10-18T17:56:06.695Z,63.74
2018-10-18T17:58:35.739Z,64.03
2018-10-18T18:01:04.928Z,64.54
2018-10-18T18:03:34.062Z,65.63
2018-10-18T18:06:03.389Z,66.21
2018-10-18T18:08:32.788Z,66.24
2018-10-18T18:11:01.830Z,66.96
2018-10-18T18:13:31.002Z,68.24
2018-10-18T18:16:00.315Z,67.84
2018-10-18T18:18:29.233Z,68.08
2018-10-18T18:20:58.236Z,68.03
2018-10-18T18:23:27.071Z,69.46
2018-10-18T18:25:55.970Z,69.42
2018-10-18T18:28:25.471Z,69.76
2018-10-18T18:30:54.645Z,69.91
2018-10-18T18:33:23.842Z,69.66
2018-10-18T18:35:52.902Z,69.91
2018-10-18T18:38:22.165Z,70.58
2018-10-18T18:40:51.402Z,70.91
2018-10-18T18:43:21.552Z,71.05
2018-10-18T18:45:50.882Z,71.36
2018-10-18T18:48:20.044Z,71.80
2018-10-18T18:50:50.401Z,71.60
2018-10-18T18:53:19.559Z,71.91
2018-10-18T18:55:48.640Z,71.96
2018-10-18T18:58:17.486Z,72.27
2018-10-18T19:00:47.327Z,72.58
2018-10-18T19:03:16.436Z,73.67
2018-10-18T19:05:46.745Z,74.20
2018-10-18T19:08:16.111Z,75.05
2018-10-18T19:10:44.933Z,75.56
2018-10-18T19:13:13.920Z,75.66
2018-10-18T19:15:43.480Z,75.80
2018-10-18T19:18:12.721Z,76.72
2018-10-18T19:20:41.910Z,77.57
2018-10-18T19:23:11.214Z,78.96
2018-10-18T19:25:40.508Z,78.92
2018-10-18T19:28:09.710Z,79.83
2018-10-18T19:30:39.011Z,80.22
2018-10-18T19:33:07.947Z,79.66
2018-10-18T19:35:36.867Z,79.67
2018-10-18T19:38:05.898Z,80.30
2018-10-18T19:40:34.742Z,79.95
2018-10-18T19:43:04.199Z,80.58
2018-10-18T19:45:33.341Z,81.64
2018-10-18T19:48:02.461Z,82.81
2018-10-18T19:50:31.642Z,83.47
2018-10-18T19:53:01.010Z,82.91
2018-10-18T19:55:30.093Z,83.07
2018-10-18T19:57:59.425Z,83.21
2018-10-18T20:00:28.708Z,83.92
2018-10-18T20:02:57.722Z,84.80
2018-10-18T20:05:26.999Z,84.26
2018-10-18T20:07:56.121Z,84.43
2018-10-18T20:10:26.411Z,85.26
2018-10-18T20:12:57.318Z,84.86
2018-10-18T20:15:26.352Z,84.65
2018-10-18T20:17:57.043Z,84.51
2018-10-18T20:20:26.254Z,84.12
2018-10-18T20:22:55.454Z,84.44
2018-10-18T20:25:25.683Z,85.83
2018-10-18T20:27:55.411Z,86.10
2018-10-18T20:30:25.065Z,85.64
2018-10-18T20:32:54.249Z,86.44
2018-10-18T20:35:23.418Z,85.74
2018-10-18T20:37:52.559Z,85.53
2018-10-18T20:40:21.770Z,86.13
2018-10-18T20:42:50.885Z,86.81
2018-10-18T20:45:24.945Z,86.55
2018-10-18T20:47:55.226Z,86.71
2018-10-18T20:50:24.934Z,88.09
2018-10-18T20:52:53.990Z,87.78
2018-10-18T20:55:24.025Z,87.55
2018-10-18T20:57:53.606Z,88.53
2018-10-18T21:00:22.671Z,89.10
2018-10-18T21:02:51.397Z,89.16
2018-10-18T21:05:20.376Z,89.21
2018-10-18T21:07:50.338Z,89.14
2018-10-18T21:10:20.001Z,89.54
2018-10-18T21:12:48.836Z,90.62
2018-10-18T21:15:17.975Z,90.73
2018-10-18T21:17:47.381Z,90.44
2018-10-18T21:20:16.320Z,90.26
2018-10-18T21:22:45.521Z,90.62
2018-10-18T21:25:16.738Z,91.25
2018-10-18T21:27:45.515Z,91.44
2018-10-18T21:30:14.357Z,91.48
2018-10-18T21:32:43.856Z,91.94
2018-10-18T21:35:12.832Z,91.93
2018-10-18T21:37:41.799Z,91.86
2018-10-18T21:40:11.104Z,92.00
2018-10-18T21:42:40.323Z,92.02
2018-10-18T21:45:26.179Z,91.76
2018-10-18T21:47:56.284Z,92.93
2018-10-18T21:50:25.026Z,92.64
2018-10-18T21:52:55.779Z,92.15
2018-10-18T21:55:24.855Z,91.95
2018-10-18T21:57:53.769Z,92.61
2018-10-18T22:00:23.448Z,92.35
2018-10-18T22:02:52.601Z,92.81
2018-10-18T22:05:21.950Z,91.98
2018-10-18T22:07:51.565Z,92.29
2018-10-18T22:10:20.474Z,92.69
2018-10-18T22:12:49.536Z,92.31
2018-10-18T22:15:18.612Z,92.37
2018-10-18T22:17:47.929Z,92.36
2018-10-18T22:20:17.143Z,92.35
2018-10-18T22:22:45.898Z,92.79
2018-10-18T22:25:15.551Z,92.67
2018-10-18T22:27:44.807Z,93.69
2018-10-18T22:30:13.944Z,93.11
2018-10-18T22:32:42.605Z,93.29
2018-10-18T22:35:11.258Z,93.66
2018-10-18T22:37:40.686Z,93.95
2018-10-18T22:40:10.127Z,93.69
2018-10-18T22:42:39.059Z,93.98
2018-10-18T22:45:09.051Z,94.32
2018-10-18T22:47:38.541Z,93.81
2018-10-18T22:50:08.009Z,93.66
2018-10-18T22:52:38.044Z,93.99
2018-10-18T22:55:07.264Z,94.30
2018-10-18T22:57:36.719Z,94.47
2018-10-18T23:00:06.780Z,94.78
2018-10-18T23:02:36.002Z,95.09
2018-10-18T23:05:05.157Z,95.07
2018-10-18T23:07:34.555Z,95.24
2018-10-18T23:10:04.479Z,95.42
2018-10-18T23:12:33.860Z,94.91
2018-10-18T23:15:03.247Z,94.49
2018-10-18T23:17:32.103Z,94.48
2018-10-18T23:20:01.294Z,95.52
2018-10-18T23:22:30.894Z,95.82
2018-10-18T23:24:59.771Z,95.62
2018-10-18T23:27:31.941Z,95.56
2018-10-18T23:30:01.085Z,95.33
2018-10-18T23:32:30.344Z,94.86
2018-10-18T23:34:59.458Z,95.00
2018-10-18T23:37:28.681Z,95.48
2018-10-18T23:39:57.834Z,95.82
2018-10-18T23:42:26.634Z,95.71
2018-10-18T23:44:55.605Z,95.47
2018-10-18T23:47:24.951Z,95.53
2018-10-18T23:49:53.952Z,95.02
2018-10-18T23:52:23.104Z,94.90
2018-10-18T23:54:52.776Z,94.24
2018-10-18T23:57:21.598Z,94.28
2018-10-18T23:59:51.166Z,94.49
